createdAt,value
2023-11-18T00:29:07.926Z,1.98
2023-11-18T00:30:08.350Z,2.01
2023-11-18T00:31:09.414Z,2.01
2023-11-18T00:32:10.111Z,2.01
2023-11-18T00:33:10.651Z,2.05
2023-11-18T00:34:11.086Z,2.05
2023-11-18T00:35:12.100Z,2.02
2023-11-18T00:36:12.460Z,2.07
2023-11-18T00:37:13.375Z,2.12
2023-11-18T00:38:14.239Z,2.11
2023-11-18T00:39:15.161Z,2.11
2023-11-18T00:40:16.006Z,2.09
2023-11-18T00:41:16.897Z,2.07
2023-11-18T00:42:17.820Z,2.07
2023-11-18T00:43:18.684Z,2.05
2023-11-18T00:44:19.562Z,2.09
2023-11-18T00:45:20.420Z,2.12
2023-11-18T00:46:21.326Z,2.15
2023-11-18T00:47:22.219Z,2.19
2023-11-18T00:48:23.127Z,2.25
2023-11-18T00:49:23.642Z,2.26
2023-11-18T00:50:24.646Z,2.25
2023-11-18T00:51:25.007Z,2.30
2023-11-18T00:52:25.969Z,2.27
2023-11-18T00:53:26.834Z,2.25
2023-11-18T00:54:27.715Z,2.27
2023-11-18T00:55:28.661Z,2.27
2023-11-18T00:56:29.521Z,2.32
2023-11-18T00:57:30.401Z,2.33
2023-11-18T00:58:31.357Z,2.32
2023-11-18T00:59:32.285Z,2.36
2023-11-18T01:00:35.508Z,2.41
2023-11-18T01:01:34.016Z,2.45
2023-11-18T01:02:34.892Z,2.43
2023-11-18T01:03:35.780Z,2.48
2023-11-18T01:04:36.658Z,2.47
2023-11-18T01:05:37.524Z,2.38
2023-11-18T01:06:38.392Z,2.43
2023-11-18T01:07:39.440Z,2.37
2023-11-18T01:08:40.020Z,2.43
2023-11-18T01:09:40.547Z,2.43
2023-11-18T01:10:41.417Z,2.44
2023-11-18T01:12:06.863Z,2.38
2023-11-18T01:12:44.074Z,2.36
2023-11-18T01:13:43.945Z,2.38
2023-11-18T01:14:44.827Z,2.38
2023-11-18T01:15:45.736Z,2.43
2023-11-18T01:16:46.621Z,2.40
2023-11-18T01:17:47.624Z,2.40
2023-11-18T01:18:48.025Z,2.43
2023-11-18T01:19:48.925Z,2.47
2023-11-18T01:20:49.775Z,2.56
2023-11-18T01:21:50.644Z,2.53
2023-11-18T01:22:51.775Z,2.51
2023-11-18T01:23:52.157Z,2.47
2023-11-18T01:24:53.042Z,2.51
2023-11-18T01:25:53.968Z,2.56
2023-11-18T01:26:54.835Z,2.59
2023-11-18T01:27:55.723Z,2.58
2023-11-18T01:28:56.785Z,2.58
2023-11-18T01:29:57.179Z,2.53
2023-11-18T01:30:58.118Z,2.59
2023-11-18T01:31:59.006Z,2.65
2023-11-18T01:32:59.945Z,2.62
2023-11-18T01:34:00.827Z,2.63
2023-11-18T01:35:01.798Z,2.59
2023-11-18T01:36:02.721Z,2.55
2023-11-18T01:37:03.591Z,2.55
2023-11-18T01:38:04.519Z,2.51
2023-11-18T01:39:05.345Z,2.55
2023-11-18T01:40:06.262Z,2.51
2023-11-18T01:41:07.268Z,2.45
2023-11-18T01:42:08.143Z,2.44
2023-11-18T01:43:09.027Z,2.48
2023-11-18T01:44:09.957Z,2.48
2023-11-18T01:45:10.812Z,2.47
2023-11-18T01:46:11.900Z,2.48
2023-11-18T01:47:12.369Z,2.45
2023-11-18T01:48:13.238Z,2.45
2023-11-18T01:49:14.147Z,2.51
2023-11-18T01:50:15.017Z,2.53
2023-11-18T01:51:15.876Z,2.59
2023-11-18T01:52:16.755Z,2.62
2023-11-18T01:53:17.620Z,2.65
2023-11-18T01:54:18.506Z,2.66
2023-11-18T01:55:19.367Z,2.69
2023-11-18T01:56:20.248Z,2.62
2023-11-18T01:57:21.147Z,2.59
2023-11-18T01:58:22.026Z,2.59
2023-11-18T01:59:22.913Z,2.65
2023-11-18T02:00:23.830Z,2.65
2023-11-18T02:01:24.733Z,2.66
2023-11-18T02:02:25.721Z,2.62
2023-11-18T02:03:26.249Z,2.65
2023-11-18T02:04:27.279Z,2.66
2023-11-18T02:05:27.714Z,2.68
2023-11-18T02:06:28.565Z,2.65
2023-11-18T02:07:29.468Z,2.66
2023-11-18T02:08:30.334Z,2.65
2023-11-18T02:09:31.226Z,2.59
2023-11-18T02:10:32.239Z,2.56
2023-11-18T02:11:32.608Z,2.51
2023-11-18T02:12:33.483Z,2.44
2023-11-18T02:13:34.373Z,2.50
2023-11-18T02:14:35.242Z,2.55
2023-11-18T02:15:36.164Z,2.56
2023-11-18T02:16:37.073Z,2.61
2023-11-18T02:17:38.023Z,2.63
2023-11-18T02:18:38.938Z,2.61
2023-11-18T02:19:39.862Z,2.56
2023-11-18T02:20:40.739Z,2.56
2023-11-18T02:21:41.642Z,2.61
2023-11-18T02:22:42.534Z,2.63
2023-11-18T02:23:43.456Z,2.62
2023-11-18T02:24:44.328Z,2.61
2023-11-18T02:25:45.232Z,2.62
2023-11-18T02:26:46.098Z,2.63
2023-11-18T02:27:47.101Z,2.68
2023-11-18T02:28:47.990Z,2.71
2023-11-18T02:29:48.896Z,2.66
2023-11-18T02:30:49.823Z,2.63
2023-11-18T02:31:50.703Z,2.66
2023-11-18T02:32:51.653Z,2.71
2023-11-18T02:33:52.365Z,2.74
2023-11-18T02:34:52.878Z,2.74
2023-11-18T02:35:53.791Z,2.76
2023-11-18T02:36:54.669Z,2.79
2023-11-18T02:37:55.589Z,2.80
2023-11-18T02:38:56.516Z,2.80
2023-11-18T02:39:57.386Z,2.80
2023-11-18T02:40:58.288Z,2.80
2023-11-18T02:41:59.189Z,2.76
2023-11-18T02:43:00.076Z,2.80
2023-11-18T02:44:00.994Z,2.74
2023-11-18T02:45:01.876Z,2.79
2023-11-18T02:46:02.764Z,2.74
2023-11-18T02:47:03.707Z,2.71
2023-11-18T02:48:04.587Z,2.74
2023-11-18T02:49:05.469Z,2.80
2023-11-18T02:50:06.464Z,2.86
2023-11-18T02:51:07.046Z,2.81
2023-11-18T02:52:07.886Z,2.80
2023-11-18T02:53:08.774Z,2.86
2023-11-18T02:54:09.624Z,2.92
2023-11-18T02:55:10.523Z,2.90
2023-11-18T02:56:11.441Z,2.94
2023-11-18T02:57:12.328Z,2.94
2023-11-18T02:58:13.200Z,2.99
2023-11-18T02:59:14.081Z,2.97
2023-11-18T03:00:14.989Z,2.95
2023-11-18T03:01:15.896Z,3.01
2023-11-18T03:02:16.833Z,3.02
2023-11-18T03:03:17.797Z,3.04
2023-11-18T03:04:18.180Z,3.02
2023-11-18T03:05:19.059Z,2.99
2023-11-18T03:06:19.937Z,2.98
2023-11-18T03:07:20.816Z,2.98
2023-11-18T03:08:21.670Z,3.01
2023-11-18T03:09:22.542Z,3.05
2023-11-18T03:10:23.650Z,2.95
2023-11-18T03:11:24.039Z,2.90
2023-11-18T03:12:27.224Z,2.95
2023-11-18T03:13:25.604Z,2.99
2023-11-18T03:14:26.480Z,2.95
2023-11-18T03:15:27.350Z,2.98
2023-11-18T03:16:28.259Z,2.99
2023-11-18T03:17:29.138Z,3.07
2023-11-18T03:18:30.508Z,3.05
2023-11-18T03:19:30.923Z,3.01
2023-11-18T03:20:31.766Z,2.95
2023-11-18T03:21:32.693Z,2.90
2023-11-18T03:22:33.592Z,2.90
2023-11-18T03:23:34.522Z,2.90
2023-11-18T03:24:35.409Z,2.87
2023-11-18T03:25:36.374Z,2.89
2023-11-18T03:26:37.243Z,2.86
2023-11-18T03:27:38.128Z,2.81
2023-11-18T03:28:39.083Z,2.79
2023-11-18T03:29:39.957Z,2.77
2023-11-18T03:30:40.849Z,2.79
2023-11-18T03:31:41.771Z,2.74
2023-11-18T03:32:42.690Z,2.76
2023-11-18T03:33:43.600Z,2.73
2023-11-18T03:34:44.542Z,2.76
2023-11-18T03:35:45.520Z,2.71
2023-11-18T03:36:46.449Z,2.74
2023-11-18T03:37:47.353Z,2.76
2023-11-18T03:38:48.207Z,2.71
2023-11-18T03:39:49.086Z,2.71
2023-11-18T03:40:50.020Z,2.68
2023-11-18T03:41:50.900Z,2.62
2023-11-18T03:42:51.769Z,2.63
2023-11-18T03:43:52.687Z,2.62
2023-11-18T03:44:53.548Z,2.66
2023-11-18T03:45:54.505Z,2.65
2023-11-18T03:46:55.394Z,2.68
2023-11-18T03:47:56.253Z,2.73
2023-11-18T03:48:57.124Z,2.71
2023-11-18T03:49:58.025Z,2.73
2023-11-18T03:50:58.895Z,2.74
2023-11-18T03:51:59.805Z,2.73
2023-11-18T03:53:00.761Z,2.73
2023-11-18T03:54:01.625Z,2.76
2023-11-18T03:55:02.493Z,2.71
2023-11-18T03:56:03.506Z,2.66
2023-11-18T03:57:04.015Z,2.73
2023-11-18T03:58:05.174Z,2.77
2023-11-18T03:59:05.664Z,2.84
2023-11-18T04:00:06.536Z,2.80
2023-11-18T04:01:07.495Z,2.77
2023-11-18T04:02:08.558Z,2.71
2023-11-18T04:03:09.023Z,2.74
2023-11-18T04:04:09.945Z,2.74
2023-11-18T04:05:10.849Z,2.81
2023-11-18T04:06:11.759Z,2.76
2023-11-18T04:07:12.638Z,2.74
2023-11-18T04:08:13.563Z,2.73
2023-11-18T04:09:14.451Z,2.73
2023-11-18T04:10:15.352Z,2.77
2023-11-18T04:11:16.182Z,2.76
2023-11-18T04:12:17.099Z,2.79
2023-11-18T04:13:17.980Z,2.79
2023-11-18T04:14:18.881Z,2.84
2023-11-18T04:15:19.731Z,2.80
2023-11-18T04:16:20.710Z,2.86
2023-11-18T04:17:21.302Z,2.90
2023-11-18T04:18:21.702Z,2.92
2023-11-18T04:19:22.558Z,2.87
2023-11-18T04:20:23.417Z,2.84
2023-11-18T04:21:24.285Z,2.76
2023-11-18T04:22:25.154Z,2.76
2023-11-18T04:23:26.030Z,2.73
2023-11-18T04:24:26.953Z,2.58
2023-11-18T04:25:27.802Z,2.44
2023-11-18T04:26:28.686Z,2.40
2023-11-18T04:27:29.567Z,2.41
2023-11-18T04:28:30.446Z,2.48
2023-11-18T04:29:31.432Z,2.50
2023-11-18T04:30:31.891Z,2.45
2023-11-18T04:31:32.785Z,2.45
2023-11-18T04:32:33.676Z,2.44
2023-11-18T04:33:34.687Z,2.37
2023-11-18T04:34:35.129Z,2.29
2023-11-18T04:35:36.007Z,2.30
2023-11-18T04:36:36.852Z,2.37
2023-11-18T04:37:37.776Z,2.40
2023-11-18T04:38:38.655Z,2.44
2023-11-18T04:39:39.515Z,2.50
2023-11-18T04:40:40.475Z,2.51
2023-11-18T04:41:41.364Z,2.56
2023-11-18T04:42:42.259Z,2.58
2023-11-18T04:43:45.974Z,2.61
2023-11-18T04:44:43.743Z,2.62
2023-11-18T04:45:44.648Z,2.61
2023-11-18T04:46:45.512Z,2.61
2023-11-18T04:47:46.572Z,2.66
2023-11-18T04:48:47.048Z,2.68
2023-11-18T04:49:47.532Z,2.71
2023-11-18T04:50:48.382Z,2.77
2023-11-18T04:51:49.278Z,2.68
2023-11-18T04:52:50.162Z,2.63
2023-11-18T04:53:51.055Z,2.55
2023-11-18T04:54:51.582Z,2.41
2023-11-18T04:55:52.498Z,2.41
2023-11-18T04:56:53.362Z,2.36
2023-11-18T04:57:54.251Z,2.37
2023-11-18T04:58:55.246Z,2.48
2023-11-18T04:59:55.692Z,2.53
2023-11-18T05:00:56.571Z,2.50
2023-11-18T05:01:57.544Z,2.51
2023-11-18T05:02:58.518Z,2.51
2023-11-18T05:03:59.510Z,2.50
2023-11-18T05:05:00.403Z,2.45
2023-11-18T05:06:01.262Z,2.44
2023-11-18T05:07:02.142Z,2.43
2023-11-18T05:08:03.140Z,2.44
2023-11-18T05:09:04.061Z,2.45
2023-11-18T05:10:04.975Z,2.50
2023-11-18T05:11:05.999Z,2.51
2023-11-18T05:12:06.531Z,2.51
2023-11-18T05:13:07.414Z,2.53
2023-11-18T05:14:08.485Z,2.51
2023-11-18T05:15:09.047Z,2.50
2023-11-18T05:16:09.453Z,2.50
2023-11-18T05:17:10.385Z,2.48
2023-11-18T05:18:10.894Z,2.53
2023-11-18T05:19:11.795Z,2.51
2023-11-18T05:20:12.804Z,2.44
2023-11-18T05:21:13.180Z,2.43
2023-11-18T05:22:14.075Z,2.41
2023-11-18T05:23:15.056Z,2.37
2023-11-18T05:24:15.933Z,2.30
2023-11-18T05:25:16.905Z,2.30
2023-11-18T05:26:17.817Z,2.33
2023-11-18T05:27:18.668Z,2.37
2023-11-18T05:28:19.640Z,2.40
2023-11-18T05:29:20.507Z,2.44
2023-11-18T05:30:21.401Z,2.40
2023-11-18T05:31:22.323Z,2.40
2023-11-18T05:32:23.353Z,2.38
2023-11-18T05:33:23.816Z,2.38
2023-11-18T05:34:24.686Z,2.37
2023-11-18T05:35:25.563Z,2.40
2023-11-18T05:36:26.520Z,2.40
2023-11-18T05:37:27.448Z,2.41
2023-11-18T05:38:28.346Z,2.44
2023-11-18T05:39:29.220Z,2.45
2023-11-18T05:40:30.195Z,2.47
2023-11-18T05:41:31.065Z,2.47
2023-11-18T05:42:32.392Z,2.41
2023-11-18T05:43:32.733Z,2.44
2023-11-18T05:44:33.631Z,2.43
2023-11-18T05:45:34.514Z,2.44
2023-11-18T05:46:35.454Z,2.44
2023-11-18T05:47:36.634Z,2.45
2023-11-18T05:48:37.031Z,2.50
2023-11-18T05:49:37.922Z,2.50
2023-11-18T05:50:38.810Z,2.45
2023-11-18T05:51:39.673Z,2.45
2023-11-18T05:52:40.598Z,2.43
2023-11-18T05:53:41.481Z,2.36
2023-11-18T05:54:42.326Z,2.37
2023-11-18T05:55:43.302Z,2.36
2023-11-18T05:56:44.245Z,2.38
2023-11-18T05:57:45.072Z,2.40
2023-11-18T05:58:46.184Z,2.38
2023-11-18T05:59:46.554Z,2.38
2023-11-18T06:00:47.613Z,2.37
2023-11-18T06:01:48.129Z,2.38
2023-11-18T06:02:48.656Z,2.38
2023-11-18T06:03:49.242Z,2.41
2023-11-18T06:04:49.719Z,2.41
2023-11-18T06:05:50.571Z,2.41
2023-11-18T06:06:51.437Z,2.41
2023-11-18T06:07:52.347Z,2.43
2023-11-18T06:08:53.475Z,2.47
2023-11-18T06:09:53.837Z,2.48
2023-11-18T06:10:54.776Z,2.48
2023-11-18T06:11:55.641Z,2.45
2023-11-18T06:12:56.597Z,2.47
2023-11-18T06:13:57.520Z,2.50
2023-11-18T06:14:58.422Z,2.45
2023-11-18T06:15:59.273Z,2.44
2023-11-18T06:17:00.345Z,2.51
2023-11-18T06:18:00.890Z,2.50
2023-11-18T06:19:01.759Z,2.45
2023-11-18T06:20:02.630Z,2.40
2023-11-18T06:21:03.569Z,2.37
2023-11-18T06:22:04.458Z,2.36
2023-11-18T06:23:05.388Z,2.37
2023-11-18T06:24:06.256Z,2.40
2023-11-18T06:25:07.167Z,2.40
2023-11-18T06:26:08.122Z,2.33
2023-11-18T06:27:08.990Z,2.33
2023-11-18T06:28:09.866Z,2.38
2023-11-18T06:29:11.762Z,2.37
2023-11-18T06:30:11.585Z,2.37
2023-11-18T06:31:12.467Z,2.38
2023-11-18T06:32:13.597Z,2.41
2023-11-18T06:33:14.107Z,2.41
2023-11-18T06:34:15.001Z,2.44
2023-11-18T06:35:16.065Z,2.44
2023-11-18T06:36:16.446Z,2.45
2023-11-18T06:37:17.343Z,2.47
2023-11-18T06:38:18.176Z,2.44
2023-11-18T06:39:19.085Z,2.44
2023-11-18T06:40:20.339Z,2.41
2023-11-18T06:41:20.895Z,2.38
2023-11-18T06:42:21.913Z,2.37
2023-11-18T06:43:22.789Z,2.40
2023-11-18T06:44:23.708Z,2.38
2023-11-18T06:45:24.587Z,2.41
2023-11-18T06:46:25.484Z,2.41
2023-11-18T06:47:26.471Z,2.38
2023-11-18T06:48:26.969Z,2.38
2023-11-18T06:49:27.423Z,2.45
2023-11-18T06:50:28.285Z,2.45
2023-11-18T06:51:29.166Z,2.43
2023-11-18T06:52:30.022Z,2.45
2023-11-18T06:53:30.903Z,2.48
2023-11-18T06:54:31.785Z,2.44
2023-11-18T06:55:32.666Z,2.43
2023-11-18T06:56:33.658Z,2.40
2023-11-18T06:57:34.506Z,2.44
2023-11-18T06:58:35.423Z,2.44
2023-11-18T06:59:36.286Z,2.44
2023-11-18T07:00:37.277Z,2.44
2023-11-18T07:01:38.169Z,2.45
2023-11-18T07:02:39.033Z,2.43
2023-11-18T07:03:39.961Z,2.41
2023-11-18T07:04:40.870Z,2.45
2023-11-18T07:05:41.765Z,2.45
2023-11-18T07:06:42.698Z,2.47
2023-11-18T07:07:43.564Z,2.47
2023-11-18T07:08:44.421Z,2.48
2023-11-18T07:09:45.320Z,2.55
2023-11-18T07:10:46.305Z,2.56
2023-11-18T07:11:47.167Z,2.53
2023-11-18T07:12:48.040Z,2.53
2023-11-18T07:13:49.042Z,2.53
2023-11-18T07:14:49.461Z,2.53
2023-11-18T07:15:50.404Z,2.53
2023-11-18T07:16:51.264Z,2.56
2023-11-18T07:17:55.304Z,2.56
2023-11-18T07:18:53.047Z,2.56
2023-11-18T07:19:53.957Z,2.55
2023-11-18T07:20:54.898Z,2.55
2023-11-18T07:21:55.833Z,2.59
2023-11-18T07:22:56.734Z,2.62
2023-11-18T07:23:57.738Z,2.61
2023-11-18T07:25:02.302Z,2.62
2023-11-18T07:25:58.993Z,2.66
2023-11-18T07:26:59.848Z,2.69
2023-11-18T07:28:00.724Z,2.69
2023-11-18T07:29:01.630Z,2.71
2023-11-18T07:30:02.491Z,2.69
2023-11-18T07:31:03.445Z,2.68
2023-11-18T07:32:04.343Z,2.69
2023-11-18T07:33:05.233Z,2.71
2023-11-18T07:34:06.075Z,2.76
2023-11-18T07:35:07.059Z,2.76
2023-11-18T07:36:07.944Z,2.84
2023-11-18T07:37:08.805Z,2.84
2023-11-18T07:38:09.756Z,2.83
2023-11-18T07:39:10.593Z,2.89
2023-11-18T07:40:11.473Z,2.94
2023-11-18T07:41:12.412Z,2.90
2023-11-18T07:42:13.260Z,2.94
2023-11-18T07:43:14.116Z,2.97
2023-11-18T07:44:15.075Z,2.98
2023-11-18T07:45:15.918Z,2.98
2023-11-18T07:46:16.825Z,2.99
2023-11-18T07:47:17.746Z,3.01
2023-11-18T07:48:18.638Z,3.08
2023-11-18T07:49:19.545Z,3.08
2023-11-18T07:50:20.488Z,3.08
2023-11-18T07:51:21.418Z,3.15
2023-11-18T07:52:22.270Z,3.20
2023-11-18T07:53:23.191Z,3.26
2023-11-18T07:54:24.193Z,3.30
2023-11-18T07:55:24.770Z,3.41
2023-11-18T07:56:25.297Z,3.42
2023-11-18T07:57:26.206Z,3.41
2023-11-18T07:58:27.054Z,3.42
2023-11-18T07:59:27.948Z,3.46
2023-11-18T08:00:28.834Z,3.45
2023-11-18T08:01:29.778Z,3.46
2023-11-18T08:02:30.726Z,3.50
2023-11-18T08:03:31.643Z,3.49
2023-11-18T08:04:32.520Z,3.59
2023-11-18T08:05:33.449Z,3.70
2023-11-18T08:06:34.340Z,3.72
2023-11-18T08:07:35.219Z,3.71
2023-11-18T08:08:36.146Z,3.72
2023-11-18T08:09:37.223Z,3.82
2023-11-18T08:10:37.648Z,3.82
2023-11-18T08:11:38.550Z,3.81
2023-11-18T08:12:39.425Z,3.82
2023-11-18T08:13:40.324Z,3.84
2023-11-18T08:14:41.169Z,3.82
2023-11-18T08:15:42.131Z,3.82
2023-11-18T08:16:42.734Z,3.81
2023-11-18T08:17:43.251Z,3.93
2023-11-18T08:18:44.144Z,4.04
2023-11-18T08:19:45.324Z,4.06
2023-11-18T08:20:45.803Z,4.13
2023-11-18T08:21:46.637Z,4.25
2023-11-18T08:22:47.611Z,4.29
2023-11-18T08:23:50.015Z,4.43
2023-11-18T08:24:49.092Z,4.53
2023-11-18T08:25:50.026Z,4.64
2023-11-18T08:26:51.240Z,4.93
2023-11-18T08:27:51.802Z,5.06
2023-11-18T08:28:52.554Z,5.15
2023-11-18T08:29:52.974Z,5.15
2023-11-18T08:30:54.032Z,4.99
2023-11-18T08:31:54.696Z,4.93
2023-11-18T08:32:55.282Z,4.94
2023-11-18T08:33:55.710Z,4.91
2023-11-18T08:34:56.600Z,4.93
2023-11-18T08:35:57.588Z,4.94
2023-11-18T08:36:58.458Z,4.93
2023-11-18T08:37:59.381Z,4.93
2023-11-18T08:39:00.223Z,4.99
2023-11-18T08:40:01.081Z,5.02
2023-11-18T08:41:02.040Z,5.05
2023-11-18T08:42:02.914Z,5.01
2023-11-18T08:43:03.825Z,5.05
2023-11-18T08:44:14.402Z,4.94
2023-11-18T08:45:08.094Z,4.93
2023-11-18T08:46:06.308Z,4.94
2023-11-18T08:47:07.200Z,4.90
2023-11-18T08:48:08.157Z,4.97
2023-11-18T08:49:08.601Z,5.04
2023-11-18T08:50:09.577Z,5.01
2023-11-18T08:51:12.634Z,5.04
2023-11-18T08:52:11.042Z,5.05
2023-11-18T08:53:11.955Z,5.05
2023-11-18T08:54:12.796Z,5.05
2023-11-18T08:55:13.700Z,4.96
2023-11-18T08:56:14.574Z,4.79
2023-11-18T08:57:15.437Z,4.80
2023-11-18T08:58:16.359Z,4.84
2023-11-18T08:59:17.266Z,4.84
2023-11-18T09:00:18.122Z,4.84
2023-11-18T09:01:19.014Z,4.74
2023-11-18T09:02:19.876Z,4.77
2023-11-18T09:03:20.790Z,4.84
2023-11-18T09:04:21.778Z,4.90
2023-11-18T09:05:22.647Z,4.93
2023-11-18T09:06:23.510Z,5.04
2023-11-18T09:07:24.378Z,4.97
2023-11-18T09:08:25.286Z,4.91
2023-11-18T09:09:26.162Z,4.93
2023-11-18T09:10:27.050Z,4.87
2023-11-18T09:11:27.959Z,4.87
2023-11-18T09:12:28.793Z,4.86
2023-11-18T09:13:29.676Z,4.86
2023-11-18T09:14:30.602Z,4.91
2023-11-18T09:15:31.535Z,4.91
2023-11-18T09:16:32.521Z,4.93
2023-11-18T09:17:33.480Z,4.93
2023-11-18T09:18:34.002Z,4.96
2023-11-18T09:19:34.385Z,5.01
2023-11-18T09:20:35.273Z,5.02
2023-11-18T09:21:36.176Z,5.08
2023-11-18T09:22:37.041Z,5.06
2023-11-18T09:23:37.942Z,5.02
2023-11-18T09:24:38.833Z,5.09
2023-11-18T09:25:39.710Z,5.09
2023-11-18T09:26:40.625Z,5.06
2023-11-18T09:27:41.489Z,5.12
2023-11-18T09:28:42.485Z,5.09
2023-11-18T09:29:43.390Z,5.11
2023-11-18T09:30:44.252Z,5.11
2023-11-18T09:31:45.180Z,5.05
2023-11-18T09:32:46.080Z,5.05
2023-11-18T09:33:47.015Z,5.02
2023-11-18T09:34:47.925Z,5.05
2023-11-18T09:35:48.765Z,4.99
2023-11-18T09:36:49.693Z,5.04
2023-11-18T09:37:50.547Z,5.15
2023-11-18T09:38:51.505Z,5.09
2023-11-18T09:39:52.393Z,5.02
2023-11-18T09:40:53.275Z,5.08
2023-11-18T09:41:54.208Z,5.08
2023-11-18T09:42:55.074Z,5.05
2023-11-18T09:43:55.964Z,5.06
2023-11-18T09:44:56.860Z,5.06
2023-11-18T09:45:57.746Z,5.11
2023-11-18T09:46:58.767Z,5.06
2023-11-18T09:47:59.300Z,5.05
2023-11-18T09:49:00.188Z,5.05
2023-11-18T09:50:01.205Z,5.08
2023-11-18T09:51:01.653Z,5.09
2023-11-18T09:52:02.518Z,5.17
2023-11-18T09:53:03.487Z,5.26
2023-11-18T09:54:04.346Z,5.29
2023-11-18T09:55:05.270Z,5.27
2023-11-18T09:56:06.173Z,5.30
2023-11-18T09:57:07.016Z,5.33
2023-11-18T09:58:07.935Z,5.35
2023-11-18T09:59:08.885Z,5.42
2023-11-18T10:00:09.767Z,5.48
2023-11-18T10:01:10.662Z,5.33
2023-11-18T10:02:11.730Z,5.30
2023-11-18T10:03:12.352Z,5.23
2023-11-18T10:04:13.317Z,5.27
2023-11-18T10:05:14.329Z,5.35
2023-11-18T10:06:14.821Z,5.38
2023-11-18T10:07:15.718Z,5.41
2023-11-18T10:08:16.718Z,5.55
2023-11-18T10:09:17.090Z,5.59
2023-11-18T10:10:17.965Z,5.63
2023-11-18T10:11:18.876Z,5.62
2023-11-18T10:12:19.845Z,5.65
2023-11-18T10:13:20.781Z,5.77
2023-11-18T10:14:22.116Z,5.75
2023-11-18T10:17:54.758Z,5.84
2023-11-18T10:18:47.099Z,5.98
2023-11-18T10:19:48.047Z,6.10
2023-11-18T10:20:48.942Z,6.19
2023-11-18T10:21:49.798Z,6.25
2023-11-18T10:22:50.771Z,6.36
2023-11-18T10:23:51.662Z,6.50
2023-11-18T10:24:52.512Z,6.48
2023-11-18T10:25:53.394Z,6.68
2023-11-18T10:26:54.293Z,6.79
2023-11-18T10:27:55.148Z,6.78
2023-11-18T10:28:56.085Z,6.87
2023-11-18T10:29:57.021Z,6.97
2023-11-18T10:30:57.860Z,6.96
2023-11-18T10:31:58.746Z,6.94
2023-11-18T10:32:59.626Z,6.82
2023-11-18T10:34:03.999Z,6.87
2023-11-18T10:35:01.053Z,6.87
2023-11-18T10:36:02.014Z,6.79
2023-11-18T10:37:02.904Z,6.68
2023-11-18T10:38:03.824Z,6.65
2023-11-18T10:39:04.730Z,6.50
2023-11-18T10:40:05.822Z,6.30
2023-11-18T10:41:06.315Z,5.99
2023-11-18T10:42:07.290Z,5.96
2023-11-18T10:43:08.166Z,6.01
2023-11-18T10:44:09.319Z,5.99
2023-11-18T10:45:09.732Z,5.98
2023-11-18T10:46:10.643Z,6.05
2023-11-18T10:47:12.188Z,6.14
2023-11-18T10:48:12.127Z,6.13
2023-11-18T10:49:13.010Z,5.88
2023-11-18T10:50:13.956Z,5.77
2023-11-18T10:51:15.430Z,5.67
2023-11-18T10:52:15.806Z,5.69
2023-11-18T10:53:16.730Z,5.66
2023-11-18T10:54:17.606Z,5.59
2023-11-18T10:55:18.493Z,5.60
2023-11-18T10:56:19.418Z,5.70
2023-11-18T10:57:20.276Z,5.84
2023-11-18T10:58:21.138Z,5.88
2023-11-18T10:59:22.109Z,5.93
2023-11-18T11:00:22.975Z,5.99
2023-11-18T11:01:23.851Z,5.92
2023-11-18T11:02:24.866Z,5.83
2023-11-18T11:03:25.555Z,5.85
2023-11-18T11:04:26.428Z,5.93
2023-11-18T11:05:27.406Z,5.93
2023-11-18T11:06:27.817Z,5.90
2023-11-18T11:07:28.691Z,6.02
2023-11-18T11:08:36.152Z,6.10
2023-11-18T11:09:31.366Z,5.98
2023-11-18T11:10:31.255Z,5.85
2023-11-18T11:11:32.191Z,5.81
2023-11-18T11:12:33.052Z,5.88
2023-11-18T11:13:33.935Z,5.92
2023-11-18T11:14:34.841Z,5.84
2023-11-18T11:15:44.973Z,5.90
2023-11-18T11:16:37.522Z,5.90
2023-11-18T11:17:37.714Z,5.98
2023-11-18T11:18:38.263Z,5.99
2023-11-18T11:19:39.168Z,6.03
2023-11-18T11:20:40.021Z,6.11
2023-11-18T11:21:40.966Z,6.11
2023-11-18T11:22:41.867Z,6.11
2023-11-18T11:23:42.770Z,6.14
2023-11-18T11:24:43.620Z,6.08
2023-11-18T11:25:44.710Z,6.10
2023-11-18T11:26:45.117Z,6.13
2023-11-18T11:27:46.019Z,6.19
2023-11-18T11:28:46.918Z,6.19
2023-11-18T11:29:47.784Z,6.11
2023-11-18T11:30:48.694Z,6.14
2023-11-18T11:31:49.627Z,6.19
2023-11-18T11:32:50.173Z,6.19
2023-11-18T11:33:51.174Z,6.21
2023-11-18T11:36:50.368Z,6.17
2023-11-18T11:37:51.354Z,6.20
2023-11-18T11:38:52.363Z,6.20
2023-11-18T11:39:54.036Z,6.25
2023-11-18T11:45:22.155Z,6.38
2023-11-18T11:46:22.679Z,6.30
2023-11-18T11:50:01.695Z,6.39
2023-11-18T11:51:00.545Z,6.38
2023-11-18T11:52:01.490Z,6.35
2023-11-18T11:53:02.613Z,6.28
2023-11-18T11:54:02.984Z,6.32
2023-11-18T11:55:03.932Z,6.35
2023-11-18T11:56:04.867Z,6.33
2023-11-18T11:57:05.831Z,6.35
2023-11-18T11:58:06.731Z,6.42
2023-11-18T12:01:11.068Z,6.33
2023-11-18T12:02:12.012Z,6.32
2023-11-18T12:03:13.033Z,6.28
2023-11-18T12:04:13.502Z,6.20
2023-11-18T12:05:14.489Z,6.21
2023-11-18T12:06:14.945Z,6.16
2023-11-18T12:07:20.650Z,6.17
2023-11-18T12:08:17.624Z,6.21
2023-11-18T12:09:17.562Z,6.19
2023-11-18T12:10:18.427Z,6.16
2023-11-18T12:11:19.320Z,6.17
2023-11-18T12:12:20.189Z,6.14
2023-11-18T12:13:21.303Z,6.25
2023-11-18T12:14:21.791Z,6.36
2023-11-18T12:15:22.677Z,6.36
2023-11-18T12:16:23.647Z,6.38
2023-11-18T12:17:24.574Z,6.38
2023-11-18T12:18:25.749Z,6.40
2023-11-18T12:19:26.271Z,6.43
2023-11-18T12:20:27.205Z,6.51
2023-11-18T12:24:02.011Z,6.61
2023-11-18T12:25:02.999Z,6.57
2023-11-18T12:26:03.511Z,6.48
2023-11-18T12:27:03.938Z,6.38
2023-11-18T12:28:05.019Z,6.43
2023-11-18T12:29:05.472Z,6.48
2023-11-18T12:30:06.342Z,6.58
2023-11-18T12:31:08.169Z,6.57
2023-11-18T12:32:07.810Z,6.54
2023-11-18T12:33:08.675Z,6.53
2023-11-18T12:34:09.571Z,6.50
2023-11-18T12:35:10.689Z,6.43
2023-11-18T12:36:11.078Z,6.48
2023-11-18T12:39:07.625Z,6.45
2023-11-18T12:40:09.753Z,6.40
2023-11-18T12:41:09.750Z,6.43
2023-11-18T12:42:10.384Z,6.46
2023-11-18T12:45:06.828Z,6.40
2023-11-18T12:48:03.564Z,6.42
2023-11-18T12:49:13.837Z,6.38
2023-11-18T12:50:28.234Z,6.42
2023-11-18T12:51:06.868Z,6.39
2023-11-18T12:52:11.043Z,6.35
2023-11-18T12:53:06.551Z,6.36
2023-11-18T12:54:07.860Z,6.38
2023-11-18T12:55:09.473Z,6.35
2023-11-18T12:56:10.929Z,6.32
2023-11-18T12:57:09.099Z,6.33
2023-11-18T13:04:59.019Z,6.40
2023-11-18T13:05:59.771Z,6.46
2023-11-18T13:07:00.524Z,6.53
2023-11-18T13:08:01.396Z,6.54
2023-11-18T13:09:02.027Z,6.57
2023-11-18T13:10:04.482Z,6.51
2023-11-18T13:11:04.336Z,6.53
2023-11-18T13:12:05.761Z,6.55
2023-11-18T13:13:38.926Z,6.55
2023-11-18T13:14:06.732Z,6.60
2023-11-18T13:15:06.592Z,6.61
2023-11-18T13:22:47.850Z,6.64
2023-11-18T13:23:43.056Z,6.64
2023-11-18T13:30:55.240Z,6.54
2023-11-18T13:31:56.311Z,6.54
2023-11-18T13:32:57.748Z,6.48
2023-11-18T13:33:57.633Z,6.45
2023-11-18T13:34:58.595Z,6.46
2023-11-18T13:35:59.430Z,6.42
2023-11-18T13:37:00.325Z,6.42
2023-11-18T13:38:01.546Z,6.39
2023-11-18T13:39:01.717Z,6.40
2023-11-18T13:40:02.582Z,6.35
2023-11-18T13:41:03.483Z,6.36
2023-11-18T13:42:04.962Z,6.35
2023-11-18T13:43:04.918Z,6.38
2023-11-18T13:44:05.832Z,6.39
2023-11-18T13:45:06.673Z,6.38
2023-11-18T13:46:07.683Z,6.35
2023-11-18T13:47:08.190Z,6.35
2023-11-18T13:48:09.178Z,6.35
2023-11-18T13:49:10.009Z,6.33
2023-11-18T13:50:10.917Z,6.35
2023-11-18T13:51:11.790Z,6.38
2023-11-18T13:52:12.680Z,6.39
2023-11-18T13:53:13.733Z,6.33
2023-11-18T13:54:14.192Z,6.27
2023-11-18T13:55:15.104Z,6.25
2023-11-18T13:56:16.011Z,6.30
2023-11-18T13:57:16.864Z,6.28
2023-11-18T13:58:17.732Z,6.24
2023-11-18T13:59:19.489Z,6.25
2023-11-18T14:00:19.316Z,6.24
2023-11-18T14:01:20.264Z,6.19
2023-11-18T14:02:21.204Z,6.25
2023-11-18T14:03:22.259Z,6.21
2023-11-18T14:04:22.818Z,6.30
2023-11-18T14:05:23.726Z,6.25
2023-11-18T14:06:24.559Z,6.28
2023-11-18T14:07:25.507Z,6.32
2023-11-18T14:08:26.426Z,6.32
2023-11-18T14:09:27.302Z,6.32
2023-11-18T14:10:28.219Z,6.30
2023-11-18T14:11:29.115Z,6.33
2023-11-18T14:12:29.976Z,6.25
2023-11-18T14:13:30.883Z,6.24
2023-11-18T14:14:31.799Z,6.24
2023-11-18T14:15:32.652Z,6.21
2023-11-18T14:16:33.670Z,6.20
2023-11-18T14:19:40.304Z,6.24
2023-11-18T14:20:41.206Z,6.27
2023-11-18T14:21:42.046Z,6.25
2023-11-18T14:22:42.925Z,6.27
2023-11-18T14:23:43.568Z,6.32
2023-11-18T14:24:44.462Z,6.30
2023-11-18T14:25:45.315Z,6.27
2023-11-18T14:26:46.197Z,6.25
2023-11-18T14:27:47.071Z,6.28
2023-11-18T14:28:47.994Z,6.25
2023-11-18T14:29:48.837Z,6.27
2023-11-18T14:30:49.724Z,6.32
2023-11-18T14:31:50.647Z,6.27
2023-11-18T14:32:51.569Z,6.27
2023-11-18T14:33:52.473Z,6.24
2023-11-18T14:34:53.400Z,6.24
2023-11-18T14:35:54.997Z,6.27
2023-11-18T14:36:54.906Z,6.28
2023-11-18T14:37:55.834Z,6.28
2023-11-18T14:38:56.718Z,6.27
2023-11-18T14:39:57.586Z,6.32
2023-11-18T14:40:58.469Z,6.27
2023-11-18T14:41:59.308Z,6.27